This is the latest recevied weather packets stored in our database for station/object N4QEP-13. If no packets are shown the sender has not sent any weather packets the latest 1 day(s).
| Time | Temp. | Humidity | Pressure | Rain* | Wind** | Luminosity | Snow |
|---|---|---|---|---|---|---|---|
| 1778093130 | 26.67° C | 68% | 1016.3 hPa | 0 mm | - | - | - |
| 1778092227 | 27.78° C | 66% | 1016.4 hPa | 0 mm | - | - | - |
| 1778091376 | 27.78° C | 64% | 1016.4 hPa | 0 mm | - | - | - |
| 1778090455 | 27.78° C | 65% | 1016.6 hPa | 0 mm | - | - | - |
| 1778088677 | 27.22° C | 66% | 1016.7 hPa | 0 mm | - | - | - |
| 1778087753 | 26.67° C | 69% | 1016.7 hPa | 0 mm | - | - | - |
| 1778084141 | 26.11° C | 68% | 1016.9 hPa | 0 mm | - | - | - |
| 1778081432 | 25.56° C | 71% | 1016.9 hPa | 0 mm | - | - | - |
| 1778080531 | 25° C | 72% | 1016.7 hPa | 0 mm | - | - | - |
| 1778077823 | 24.44° C | 73% | 1016.5 hPa | 0 mm | - | - | - |
| 1778068823 | 21.11° C | 81% | 1014.8 hPa | 0 mm | - | - | - |
| 1778067023 | 20.56° C | 81% | 1014.3 hPa | 0 mm | - | - | - |
| 1778066115 | 20° C | 81% | 1014 hPa | 0 mm | - | - | - |
| 1778064311 | 19.44° C | 81% | 1013.5 hPa | 0 mm | - | - | - |
| 1778063409 | 19.44° C | 81% | 1013.3 hPa | 0 mm | - | - | - |
| 1778062506 | 18.89° C | 81% | 1013.2 hPa | 0 mm | - | - | - |
| 1778056252 | 17.22° C | 80% | 1013.5 hPa | 0 mm | - | - | - |
| 1778055354 | 17.22° C | 81% | 1013.6 hPa | 0 mm | - | - | - |
| 1778052644 | 17.22° C | 80% | 1013.8 hPa | 0 mm | - | - | - |
| 1778051746 | 17.22° C | 80% | 1014 hPa | 0 mm | - | - | - |
| 1778050842 | 17.78° C | 80% | 1014.1 hPa | 0 mm | - | - | - |
| 1778049938 | 17.78° C | 80% | 1014.1 hPa | 0 mm | - | - | - |
| 1778047222 | 17.78° C | 80% | 1014.4 hPa | 0 mm | - | - | - |
| 1778046318 | 18.33° C | 80% | 1014.7 hPa | 0 mm | - | - | - |
| 1778043616 | 17.78° C | 78% | 1014.9 hPa | 0 mm | - | - | - |
* Rain latest hour (hover to see other rain measurements)
** Current wind speed in m/s (hover to see current wind gust speed)